sensor_id;sensor_type;location;lat;lon;timestamp;pressure;altitude;pressure_sealevel;temperature;humidity
51313;BME280;37397;53.226;10.400;2023-11-21T00:01:05;100510.56;;;11.49;77.56
51313;BME280;37397;53.226;10.400;2023-11-21T00:03:35;100507.19;;;11.51;77.30
51313;BME280;37397;53.226;10.400;2023-11-21T00:06:02;100499.91;;;11.50;77.56
51313;BME280;37397;53.226;10.400;2023-11-21T00:08:29;100505.34;;;11.48;77.39
51313;BME280;37397;53.226;10.400;2023-11-21T00:10:56;100502.78;;;11.50;77.60
51313;BME280;37397;53.226;10.400;2023-11-21T00:13:23;100506.91;;;11.49;77.49
51313;BME280;37397;53.226;10.400;2023-11-21T00:15:50;100508.50;;;11.50;77.34
51313;BME280;37397;53.226;10.400;2023-11-21T00:18:17;100516.28;;;11.49;77.50
51313;BME280;37397;53.226;10.400;2023-11-21T00:20:43;100517.06;;;11.50;77.37
51313;BME280;37397;53.226;10.400;2023-11-21T00:23:10;100525.63;;;11.50;77.51
51313;BME280;37397;53.226;10.400;2023-11-21T00:25:37;100525.34;;;11.48;77.49
51313;BME280;37397;53.226;10.400;2023-11-21T00:28:03;100522.50;;;11.48;77.35
51313;BME280;37397;53.226;10.400;2023-11-21T00:30:30;100525.84;;;11.46;77.43
51313;BME280;37397;53.226;10.400;2023-11-21T00:32:57;100537.28;;;11.46;77.39
51313;BME280;37397;53.226;10.400;2023-11-21T00:35:25;100528.59;;;11.41;77.42
51313;BME280;37397;53.226;10.400;2023-11-21T00:37:51;100545.03;;;11.46;77.56
51313;BME280;37397;53.226;10.400;2023-11-21T00:40:18;100551.84;;;11.48;77.85
51313;BME280;37397;53.226;10.400;2023-11-21T00:42:49;100559.63;;;11.48;77.85
51313;BME280;37397;53.226;10.400;2023-11-21T00:45:15;100563.78;;;11.47;77.78
51313;BME280;37397;53.226;10.400;2023-11-21T00:47:42;100557.28;;;11.46;77.58
51313;BME280;37397;53.226;10.400;2023-11-21T00:50:09;100554.91;;;11.45;77.68
51313;BME280;37397;53.226;10.400;2023-11-21T00:52:36;100562.19;;;11.46;77.62
51313;BME280;37397;53.226;10.400;2023-11-21T00:55:04;100568.72;;;11.46;77.54
51313;BME280;37397;53.226;10.400;2023-11-21T00:57:31;100578.06;;;11.47;77.42
51313;BME280;37397;53.226;10.400;2023-11-21T00:59:57;100567.91;;;11.46;77.43
51313;BME280;37397;53.226;10.400;2023-11-21T01:02:24;100568.09;;;11.42;77.39
51313;BME280;37397;53.226;10.400;2023-11-21T01:04:52;100580.31;;;11.43;77.43
51313;BME280;37397;53.226;10.400;2023-11-21T01:07:19;100576.69;;;11.42;77.55
51313;BME280;37397;53.226;10.400;2023-11-21T01:09:47;100578.75;;;11.42;77.58
51313;BME280;37397;53.226;10.400;2023-11-21T01:12:14;100577.44;;;11.43;77.31
51313;BME280;37397;53.226;10.400;2023-11-21T01:14:41;100582.88;;;11.41;77.41
51313;BME280;37397;53.226;10.400;2023-11-21T01:17:08;100582.09;;;11.40;77.16
51313;BME280;37397;53.226;10.400;2023-11-21T01:19:35;100597.16;;;11.41;77.18
51313;BME280;37397;53.226;10.400;2023-11-21T01:22:01;100596.88;;;11.39;77.18
51313;BME280;37397;53.226;10.400;2023-11-21T01:24:29;100609.09;;;11.39;77.25
51313;BME280;37397;53.226;10.400;2023-11-21T01:26:56;100613.72;;;11.37;77.14
51313;BME280;37397;53.226;10.400;2023-11-21T01:29:22;100624.84;;;11.35;77.12
51313;BME280;37397;53.226;10.400;2023-11-21T01:31:49;100610.28;;;11.32;77.19
51313;BME280;37397;53.226;10.400;2023-11-21T01:34:16;100611.06;;;11.33;77.09
51313;BME280;37397;53.226;10.400;2023-11-21T01:36:42;100621.69;;;11.32;76.97
51313;BME280;37397;53.226;10.400;2023-11-21T01:39:10;100623.47;;;11.30;76.99
51313;BME280;37397;53.226;10.400;2023-11-21T01:41:41;100625.25;;;11.27;76.87
51313;BME280;37397;53.226;10.400;2023-11-21T01:44:10;100633.81;;;11.27;76.87
51313;BME280;37397;53.226;10.400;2023-11-21T01:46:38;100630.97;;;11.27;76.95
51313;BME280;37397;53.226;10.400;2023-11-21T01:49:05;100640.81;;;11.26;76.75
51313;BME280;37397;53.226;10.400;2023-11-21T01:51:32;100637.66;;;11.24;76.72
51313;BME280;37397;53.226;10.400;2023-11-21T01:54:02;100642.09;;;11.25;76.86
51313;BME280;37397;53.226;10.400;2023-11-21T01:56:31;100650.34;;;11.23;76.74
51313;BME280;37397;53.226;10.400;2023-11-21T01:58:58;100651.66;;;11.22;76.86
51313;BME280;37397;53.226;10.400;2023-11-21T02:01:25;100654.19;;;11.20;76.71
51313;BME280;37397;53.226;10.400;2023-11-21T02:03:52;100663.56;;;11.21;76.98
51313;BME280;37397;53.226;10.400;2023-11-21T02:06:19;100660.88;;;11.17;76.69
51313;BME280;37397;53.226;10.400;2023-11-21T02:08:46;100671.53;;;11.17;76.64
51313;BME280;37397;53.226;10.400;2023-11-21T02:11:13;100678.00;;;11.17;76.71
51313;BME280;37397;53.226;10.400;2023-11-21T02:13:39;100679.78;;;11.15;76.38
51313;BME280;37397;53.226;10.400;2023-11-21T02:16:10;100679.00;;;11.14;76.49
51313;BME280;37397;53.226;10.400;2023-11-21T02:18:39;100675.06;;;11.11;76.70
51313;BME280;37397;53.226;10.400;2023-11-21T02:21:06;100677.63;;;11.09;76.67
51313;BME280;37397;53.226;10.400;2023-11-21T02:23:33;100683.34;;;11.09;76.77
51313;BME280;37397;53.226;10.400;2023-11-21T02:26:00;100684.91;;;11.10;76.45
51313;BME280;37397;53.226;10.400;2023-11-21T02:28:30;100696.50;;;11.07;76.59
51313;BME280;37397;53.226;10.400;2023-11-21T02:30:57;100700.63;;;11.06;76.35
51313;BME280;37397;53.226;10.400;2023-11-21T02:33:25;100703.50;;;11.06;76.37
51313;BME280;37397;53.226;10.400;2023-11-21T02:35:52;100691.78;;;11.04;76.69
51313;BME280;37397;53.226;10.400;2023-11-21T02:38:21;100702.91;;;11.02;76.18
51313;BME280;37397;53.226;10.400;2023-11-21T02:40:48;100700.81;;;11.02;76.26
51313;BME280;37397;53.226;10.400;2023-11-21T02:43:16;100709.88;;;11.01;76.26
51313;BME280;37397;53.226;10.400;2023-11-21T02:45:42;100703.59;;;10.97;76.14
51313;BME280;37397;53.226;10.400;2023-11-21T02:48:09;100703.59;;;10.97;76.21
51313;BME280;37397;53.226;10.400;2023-11-21T02:50:36;100713.41;;;10.95;76.21
51313;BME280;37397;53.226;10.400;2023-11-21T02:53:04;100710.56;;;10.95;76.43
51313;BME280;37397;53.226;10.400;2023-11-21T02:55:32;100707.41;;;10.93;76.08
51313;BME280;37397;53.226;10.400;2023-11-21T02:58:02;100712.78;;;10.91;76.15
51313;BME280;37397;53.226;10.400;2023-11-21T03:00:30;100717.44;;;10.89;76.00
51313;BME280;37397;53.226;10.400;2023-11-21T03:02:57;100723.91;;;10.89;75.90
51313;BME280;37397;53.226;10.400;2023-11-21T03:05:25;100735.03;;;10.87;75.89
51313;BME280;37397;53.226;10.400;2023-11-21T03:07:51;100731.91;;;10.85;76.06
51313;BME280;37397;53.226;10.400;2023-11-21T03:10:18;100740.47;;;10.85;75.93
51313;BME280;37397;53.226;10.400;2023-11-21T03:12:45;100747.44;;;10.84;75.99
51313;BME280;37397;53.226;10.400;2023-11-21T03:15:12;100755.69;;;10.82;76.00
51313;BME280;37397;53.226;10.400;2023-11-21T03:17:39;100753.31;;;10.81;75.90
51313;BME280;37397;53.226;10.400;2023-11-21T03:20:07;100774.09;;;10.81;75.75
51313;BME280;37397;53.226;10.400;2023-11-21T03:22:37;100768.88;;;10.80;75.66
51313;BME280;37397;53.226;10.400;2023-11-21T03:25:05;100772.19;;;10.78;75.72
51313;BME280;37397;53.226;10.400;2023-11-21T03:27:32;100763.34;;;10.76;75.60
51313;BME280;37397;53.226;10.400;2023-11-21T03:29:59;100765.91;;;10.74;75.62
51313;BME280;37397;53.226;10.400;2023-11-21T03:32:27;100760.66;;;10.72;75.66
51313;BME280;37397;53.226;10.400;2023-11-21T03:34:55;100770.00;;;10.73;75.79
51313;BME280;37397;53.226;10.400;2023-11-21T03:37:23;100765.28;;;10.70;75.95
51313;BME280;37397;53.226;10.400;2023-11-21T03:39:51;100775.09;;;10.69;75.81
51313;BME280;37397;53.226;10.400;2023-11-21T03:42:18;100770.34;;;10.66;75.75
51313;BME280;37397;53.226;10.400;2023-11-21T03:44:44;100781.00;;;10.65;75.66
51313;BME280;37397;53.226;10.400;2023-11-21T03:47:11;100787.47;;;10.66;75.69
51313;BME280;37397;53.226;10.400;2023-11-21T03:49:38;100795.75;;;10.64;75.79
51313;BME280;37397;53.226;10.400;2023-11-21T03:52:05;100788.63;;;10.59;75.72
51313;BME280;37397;53.226;10.400;2023-11-21T03:54:34;100801.16;;;10.62;75.63
51313;BME280;37397;53.226;10.400;2023-11-21T03:57:00;100809.88;;;10.58;75.79
51313;BME280;37397;53.226;10.400;2023-11-21T03:59:27;100806.56;;;10.60;75.62
51313;BME280;37397;53.226;10.400;2023-11-21T04:01:57;100816.38;;;10.58;75.70
51313;BME280;37397;53.226;10.400;2023-11-21T04:04:23;100810.38;;;10.56;75.65
51313;BME280;37397;53.226;10.400;2023-11-21T04:06:50;100818.59;;;10.54;75.73
51313;BME280;37397;53.226;10.400;2023-11-21T04:09:18;100821.44;;;10.54;75.55
51313;BME280;37397;53.226;10.400;2023-11-21T04:11:45;100819.88;;;10.53;75.64
51313;BME280;37397;53.226;10.400;2023-11-21T04:14:12;100830.53;;;10.53;75.58
51313;BME280;37397;53.226;10.400;2023-11-21T04:16:40;100839.56;;;10.51;75.67
51313;BME280;37397;53.226;10.400;2023-11-21T04:19:07;100836.38;;;10.49;75.75
51313;BME280;37397;53.226;10.400;2023-11-21T04:21:36;100838.94;;;10.47;75.60
51313;BME280;37397;53.226;10.400;2023-11-21T04:24:02;100850.34;;;10.47;75.65
51313;BME280;37397;53.226;10.400;2023-11-21T04:26:29;100855.25;;;10.47;75.60
51313;BME280;37397;53.226;10.400;2023-11-21T04:28:55;100861.94;;;10.44;75.52
51313;BME280;37397;53.226;10.400;2023-11-21T04:31:22;100868.41;;;10.44;75.46
51313;BME280;37397;53.226;10.400;2023-11-21T04:33:49;100872.53;;;10.43;75.51
51313;BME280;37397;53.226;10.400;2023-11-21T04:36:15;100875.06;;;10.41;75.76
51313;BME280;37397;53.226;10.400;2023-11-21T04:38:42;100888.56;;;10.40;75.44
51313;BME280;37397;53.226;10.400;2023-11-21T04:41:09;100886.47;;;10.41;75.63
51313;BME280;37397;53.226;10.400;2023-11-21T04:43:35;100887.44;;;10.38;75.51
51313;BME280;37397;53.226;10.400;2023-11-21T04:46:02;100889.50;;;10.37;75.54
51313;BME280;37397;53.226;10.400;2023-11-21T04:48:29;100889.22;;;10.35;75.49
51313;BME280;37397;53.226;10.400;2023-11-21T04:50:55;100879.53;;;10.33;75.46
51313;BME280;37397;53.226;10.400;2023-11-21T04:53:22;100880.75;;;10.32;75.47
51313;BME280;37397;53.226;10.400;2023-11-21T04:55:49;100887.75;;;10.31;75.43
51313;BME280;37397;53.226;10.400;2023-11-21T04:58:15;100899.16;;;10.31;75.39
51313;BME280;37397;53.226;10.400;2023-11-21T05:00:42;100906.13;;;10.30;75.49
51313;BME280;37397;53.226;10.400;2023-11-21T05:03:09;100913.09;;;10.29;75.41
51313;BME280;37397;53.226;10.400;2023-11-21T05:05:36;100918.19;;;10.25;75.49
51313;BME280;37397;53.226;10.400;2023-11-21T05:08:03;100914.06;;;10.26;75.46
51313;BME280;37397;53.226;10.400;2023-11-21T05:10:30;100923.88;;;10.25;75.40
51313;BME280;37397;53.226;10.400;2023-11-21T05:12:56;100923.88;;;10.25;75.26
51313;BME280;37397;53.226;10.400;2023-11-21T05:15:23;100917.53;;;10.20;75.26
51313;BME280;37397;53.226;10.400;2023-11-21T05:17:51;100924.53;;;10.19;75.08
51313;BME280;37397;53.226;10.400;2023-11-21T05:20:19;100930.22;;;10.19;75.28
51313;BME280;37397;53.226;10.400;2023-11-21T05:22:50;100941.66;;;10.19;75.21
51313;BME280;37397;53.226;10.400;2023-11-21T05:25:16;100941.66;;;10.19;75.40
51313;BME280;37397;53.226;10.400;2023-11-21T05:27:46;100941.31;;;10.17;75.34
51313;BME280;37397;53.226;10.400;2023-11-21T05:30:13;100936.09;;;10.16;75.44
51313;BME280;37397;53.226;10.400;2023-11-21T05:32:40;100937.84;;;10.13;75.29
51313;BME280;37397;53.226;10.400;2023-11-21T05:35:10;100936.59;;;10.14;75.33
51313;BME280;37397;53.226;10.400;2023-11-21T05:37:44;100944.00;;;10.12;75.31
51313;BME280;37397;53.226;10.400;2023-11-21T05:40:11;100943.22;;;10.11;75.66
51313;BME280;37397;53.226;10.400;2023-11-21T05:42:39;100945.75;;;10.09;75.21
51313;BME280;37397;53.226;10.400;2023-11-21T05:45:07;100953.81;;;10.11;75.22
51313;BME280;37397;53.226;10.400;2023-11-21T05:47:40;100958.44;;;10.08;75.43
51313;BME280;37397;53.226;10.400;2023-11-21T05:50:09;100960.47;;;10.08;75.23
51313;BME280;37397;53.226;10.400;2023-11-21T05:52:37;100960.63;;;10.04;75.22
51313;BME280;37397;53.226;10.400;2023-11-21T05:55:04;100965.56;;;10.03;75.25
51313;BME280;37397;53.226;10.400;2023-11-21T05:57:38;100970.47;;;10.03;75.18
51313;BME280;37397;53.226;10.400;2023-11-21T06:00:10;100977.13;;;10.00;75.16
51313;BME280;37397;53.226;10.400;2023-11-21T06:02:42;100972.38;;;9.97;75.24
51313;BME280;37397;53.226;10.400;2023-11-21T06:05:09;100981.69;;;9.97;75.42
51313;BME280;37397;53.226;10.400;2023-11-21T06:07:37;100982.81;;;10.00;75.19
51313;BME280;37397;53.226;10.400;2023-11-21T06:10:05;100988.66;;;9.96;75.33
51313;BME280;37397;53.226;10.400;2023-11-21T06:12:33;100987.88;;;9.96;75.19
51313;BME280;37397;53.226;10.400;2023-11-21T06:15:03;100993.59;;;9.96;75.17
51313;BME280;37397;53.226;10.400;2023-11-21T06:17:35;100999.28;;;9.96;75.32
51313;BME280;37397;53.226;10.400;2023-11-21T06:20:04;100997.06;;;9.91;75.23
51313;BME280;37397;53.226;10.400;2023-11-21T06:22:37;101009.25;;;9.91;75.35
51313;BME280;37397;53.226;10.400;2023-11-21T06:25:05;101010.03;;;9.92;75.34
51313;BME280;37397;53.226;10.400;2023-11-21T06:27:33;101015.72;;;9.92;75.32
51313;BME280;37397;53.226;10.400;2023-11-21T06:30:00;101019.88;;;9.91;75.42
51313;BME280;37397;53.226;10.400;2023-11-21T06:32:27;101020.03;;;9.87;75.32
51313;BME280;37397;53.226;10.400;2023-11-21T06:34:56;101042.34;;;9.89;75.27
51313;BME280;37397;53.226;10.400;2023-11-21T06:37:26;101036.78;;;9.85;75.09
51313;BME280;37397;53.226;10.400;2023-11-21T06:39:53;101048.66;;;9.83;75.04
51313;BME280;37397;53.226;10.400;2023-11-21T06:42:20;101057.56;;;9.85;75.16
51313;BME280;37397;53.226;10.400;2023-11-21T06:44:47;101058.50;;;9.82;75.14
51313;BME280;37397;53.226;10.400;2023-11-21T06:47:14;101062.59;;;9.81;75.18
51313;BME280;37397;53.226;10.400;2023-11-21T06:49:42;101064.66;;;9.81;75.14
51313;BME280;37397;53.226;10.400;2023-11-21T06:52:09;101072.41;;;9.80;75.14
51313;BME280;37397;53.226;10.400;2023-11-21T06:54:36;101074.94;;;9.78;75.33
51313;BME280;37397;53.226;10.400;2023-11-21T06:57:03;101079.06;;;9.77;75.12
51313;BME280;37397;53.226;10.400;2023-11-21T06:59:30;101079.06;;;9.77;75.18
51313;BME280;37397;53.226;10.400;2023-11-21T07:01:57;101081.56;;;9.75;75.12
51313;BME280;37397;53.226;10.400;2023-11-21T07:04:24;101087.28;;;9.75;75.17
51313;BME280;37397;53.226;10.400;2023-11-21T07:06:53;101084.09;;;9.73;75.38
51313;BME280;37397;53.226;10.400;2023-11-21T07:09:20;101080.13;;;9.71;75.22
51313;BME280;37397;53.226;10.400;2023-11-21T07:11:49;101083.44;;;9.69;75.10
51313;BME280;37397;53.226;10.400;2023-11-21T07:14:16;101102.13;;;9.70;75.31
51313;BME280;37397;53.226;10.400;2023-11-21T07:16:43;101103.06;;;9.67;75.27
51313;BME280;37397;53.226;10.400;2023-11-21T07:19:09;101102.28;;;9.66;75.16
51313;BME280;37397;53.226;10.400;2023-11-21T07:21:36;101102.28;;;9.66;75.24
51313;BME280;37397;53.226;10.400;2023-11-21T07:24:03;101097.38;;;9.67;75.27
51313;BME280;37397;53.226;10.400;2023-11-21T07:26:30;101105.91;;;9.67;75.19
51313;BME280;37397;53.226;10.400;2023-11-21T07:28:57;101110.84;;;9.66;75.24
51313;BME280;37397;53.226;10.400;2023-11-21T07:31:23;101114.16;;;9.65;75.41
51313;BME280;37397;53.226;10.400;2023-11-21T07:33:50;101123.47;;;9.65;75.33
51313;BME280;37397;53.226;10.400;2023-11-21T07:36:17;101121.09;;;9.64;75.57
51313;BME280;37397;53.226;10.400;2023-11-21T07:38:45;101122.69;;;9.65;75.33
51313;BME280;37397;53.226;10.400;2023-11-21T07:41:11;101127.63;;;9.64;75.45
51313;BME280;37397;53.226;10.400;2023-11-21T07:43:56;101135.81;;;9.62;75.51
51313;BME280;37397;53.226;10.400;2023-11-21T07:46:22;101140.72;;;9.62;75.44
51313;BME280;37397;53.226;10.400;2023-11-21T07:48:50;101154.97;;;9.62;75.47
51313;BME280;37397;53.226;10.400;2023-11-21T07:51:18;101138.34;;;9.60;75.44
51313;BME280;37397;53.226;10.400;2023-11-21T07:53:45;101145.66;;;9.61;75.47
51313;BME280;37397;53.226;10.400;2023-11-21T07:56:12;101152.59;;;9.60;75.40
51313;BME280;37397;53.226;10.400;2023-11-21T07:58:39;101160.34;;;9.60;75.26
51313;BME280;37397;53.226;10.400;2023-11-21T08:01:05;101171.41;;;9.58;75.20
51313;BME280;37397;53.226;10.400;2023-11-21T08:03:33;101175.06;;;9.58;75.32
51313;BME280;37397;53.226;10.400;2023-11-21T08:06:00;101182.00;;;9.57;75.34
51313;BME280;37397;53.226;10.400;2023-11-21T08:08:26;101176.00;;;9.55;75.30
51313;BME280;37397;53.226;10.400;2023-11-21T08:10:54;101174.41;;;9.54;75.33
51313;BME280;37397;53.226;10.400;2023-11-21T08:13:28;101178.38;;;9.57;75.35
51313;BME280;37397;53.226;10.400;2023-11-21T08:15:56;101181.38;;;9.53;75.16
51313;BME280;37397;53.226;10.400;2023-11-21T08:18:24;101192.31;;;9.55;75.29
51313;BME280;37397;53.226;10.400;2023-11-21T08:20:51;101191.63;;;9.51;75.27
51313;BME280;37397;53.226;10.400;2023-11-21T08:23:17;101198.47;;;9.53;75.32
51313;BME280;37397;53.226;10.400;2023-11-21T08:25:44;101191.63;;;9.51;75.29
51313;BME280;37397;53.226;10.400;2023-11-21T08:28:11;101203.03;;;9.51;75.42
51313;BME280;37397;53.226;10.400;2023-11-21T08:30:38;101205.09;;;9.50;75.26
51313;BME280;37397;53.226;10.400;2023-11-21T08:33:05;101208.72;;;9.51;75.37
51313;BME280;37397;53.226;10.400;2023-11-21T08:35:32;101205.56;;;9.48;75.47
51313;BME280;37397;53.226;10.400;2023-11-21T08:37:59;101215.34;;;9.47;75.45
51313;BME280;37397;53.226;10.400;2023-11-21T08:40:26;101216.94;;;9.48;75.37
51313;BME280;37397;53.226;10.400;2023-11-21T08:42:52;101212.97;;;9.46;75.32
51313;BME280;37397;53.226;10.400;2023-11-21T08:45:19;101213.28;;;9.48;75.34
51313;BME280;37397;53.226;10.400;2023-11-21T08:47:46;101220.25;;;9.47;75.36
51313;BME280;37397;53.226;10.400;2023-11-21T08:50:13;101213.09;;;9.42;75.49
51313;BME280;37397;53.226;10.400;2023-11-21T08:52:40;101228.00;;;9.46;75.38
51313;BME280;37397;53.226;10.400;2023-11-21T08:55:08;101233.69;;;9.46;75.37
51313;BME280;37397;53.226;10.400;2023-11-21T08:57:35;101229.28;;;9.45;75.40
51313;BME280;37397;53.226;10.400;2023-11-21T09:00:03;101240.66;;;9.45;75.25
51313;BME280;37397;53.226;10.400;2023-11-21T09:02:35;101240.66;;;9.45;75.44
51313;BME280;37397;53.226;10.400;2023-11-21T09:05:06;101252.84;;;9.46;75.35
51313;BME280;37397;53.226;10.400;2023-11-21T09:07:33;101259.34;;;9.46;75.60
51313;BME280;37397;53.226;10.400;2023-11-21T09:10:00;101261.41;;;9.46;75.69
51313;BME280;37397;53.226;10.400;2023-11-21T09:12:26;101267.88;;;9.46;75.54
51313;BME280;37397;53.226;10.400;2023-11-21T09:14:53;101269.16;;;9.45;75.57
51313;BME280;37397;53.226;10.400;2023-11-21T09:17:20;101267.56;;;9.44;75.71
51313;BME280;37397;53.226;10.400;2023-11-21T09:19:47;101259.47;;;9.43;75.55
51313;BME280;37397;53.226;10.400;2023-11-21T09:22:17;101273.13;;;9.48;75.64
51313;BME280;37397;53.226;10.400;2023-11-21T09:24:44;101273.56;;;9.46;75.73
51313;BME280;37397;53.226;10.400;2023-11-21T09:27:11;101280.53;;;9.45;75.62
51313;BME280;37397;53.226;10.400;2023-11-21T09:29:37;101267.56;;;9.44;75.77
51313;BME280;37397;53.226;10.400;2023-11-21T09:32:06;101287.81;;;9.46;75.39
51313;BME280;37397;53.226;10.400;2023-11-21T09:34:34;101306.84;;;9.49;75.62
51313;BME280;37397;53.226;10.400;2023-11-21T09:37:05;101298.28;;;9.49;75.69
51313;BME280;37397;53.226;10.400;2023-11-21T09:39:33;101309.69;;;9.49;75.72
51313;BME280;37397;53.226;10.400;2023-11-21T09:42:11;101318.22;;;9.49;75.42
51313;BME280;37397;53.226;10.400;2023-11-21T09:44:46;101306.19;;;9.45;75.51
51313;BME280;37397;53.226;10.400;2023-11-21T09:47:15;101317.78;;;9.51;75.61
51313;BME280;37397;53.226;10.400;2023-11-21T09:49:47;101318.59;;;9.52;75.64
51313;BME280;37397;53.226;10.400;2023-11-21T09:52:27;101323.47;;;9.51;75.59
51313;BME280;37397;53.226;10.400;2023-11-21T09:54:55;101325.06;;;9.52;75.54
51313;BME280;37397;53.226;10.400;2023-11-21T09:57:25;101330.78;;;9.52;75.51
51313;BME280;37397;53.226;10.400;2023-11-21T09:59:53;101338.41;;;9.55;75.64
51313;BME280;37397;53.226;10.400;2023-11-21T10:02:25;101333.94;;;9.54;75.51
51313;BME280;37397;53.226;10.400;2023-11-21T10:04:53;101336.78;;;9.54;75.75
51313;BME280;37397;53.226;10.400;2023-11-21T10:07:21;101331.09;;;9.54;75.61
51313;BME280;37397;53.226;10.400;2023-11-21T10:09:48;101335.56;;;9.55;75.80
51313;BME280;37397;53.226;10.400;2023-11-21T10:12:15;101338.84;;;9.54;75.70
51313;BME280;37397;53.226;10.400;2023-11-21T10:14:42;101338.41;;;9.55;75.47
51313;BME280;37397;53.226;10.400;2023-11-21T10:17:14;101342.81;;;9.56;75.31
51313;BME280;37397;53.226;10.400;2023-11-21T10:19:43;101346.16;;;9.55;75.27
51313;BME280;37397;53.226;10.400;2023-11-21T10:22:10;101348.53;;;9.56;75.36
51313;BME280;37397;53.226;10.400;2023-11-21T10:24:36;101357.88;;;9.57;75.27
51313;BME280;37397;53.226;10.400;2023-11-21T10:27:17;101359.91;;;9.56;75.41
51313;BME280;37397;53.226;10.400;2023-11-21T10:29:44;101366.44;;;9.57;75.30
51313;BME280;37397;53.226;10.400;2023-11-21T10:32:11;101361.19;;;9.55;75.23
51313;BME280;37397;53.226;10.400;2023-11-21T10:34:38;101361.19;;;9.55;75.27
51313;BME280;37397;53.226;10.400;2023-11-21T10:37:11;101360.72;;;9.57;75.37
51313;BME280;37397;53.226;10.400;2023-11-21T10:39:39;101363.91;;;9.59;75.17
51313;BME280;37397;53.226;10.400;2023-11-21T10:42:08;101369.59;;;9.59;75.10
51313;BME280;37397;53.226;10.400;2023-11-21T10:44:36;101366.44;;;9.57;75.19
51313;BME280;37397;53.226;10.400;2023-11-21T10:47:04;101370.41;;;9.59;74.98
51313;BME280;37397;53.226;10.400;2023-11-21T10:49:31;101360.72;;;9.57;75.14
51313;BME280;37397;53.226;10.400;2023-11-21T10:51:59;101363.91;;;9.59;74.98
51313;BME280;37397;53.226;10.400;2023-11-21T10:54:26;101361.38;;;9.61;74.94
51313;BME280;37397;53.226;10.400;2023-11-21T10:57:00;101359.81;;;9.60;74.93
51313;BME280;37397;53.226;10.400;2023-11-21T10:59:29;101361.38;;;9.61;74.90
51313;BME280;37397;53.226;10.400;2023-11-21T11:01:58;101368.69;;;9.62;74.95
51313;BME280;37397;53.226;10.400;2023-11-21T11:04:27;101369.47;;;9.62;75.16
51313;BME280;37397;53.226;10.400;2023-11-21T11:06:56;101376.78;;;9.63;74.85
51313;BME280;37397;53.226;10.400;2023-11-21T11:09:23;101381.22;;;9.64;74.98
51313;BME280;37397;53.226;10.400;2023-11-21T11:11:51;101372.69;;;9.64;74.79
51313;BME280;37397;53.226;10.400;2023-11-21T11:14:19;101371.41;;;9.65;74.83
51313;BME280;37397;53.226;10.400;2023-11-21T11:16:46;101373.00;;;9.66;74.67
51313;BME280;37397;53.226;10.400;2023-11-21T11:19:15;101373.78;;;9.67;74.66
51313;BME280;37397;53.226;10.400;2023-11-21T11:22:00;101370.94;;;9.67;74.57
51313;BME280;37397;53.226;10.400;2023-11-21T11:27:48;101383.63;;;9.66;74.50
51313;BME280;37397;53.226;10.400;2023-11-21T11:33:35;101401.97;;;9.65;74.29
51313;BME280;37397;53.226;10.400;2023-11-21T11:38:53;101407.66;;;9.65;74.63
51313;BME280;37397;53.226;10.400;2023-11-21T11:41:26;101413.69;;;9.67;74.75
51313;BME280;37397;53.226;10.400;2023-11-21T11:43:54;101412.44;;;9.68;74.37
51313;BME280;37397;53.226;10.400;2023-11-21T11:46:40;101420.19;;;9.67;74.20
51313;BME280;37397;53.226;10.400;2023-11-21T11:49:08;101418.47;;;9.70;74.47
51313;BME280;37397;53.226;10.400;2023-11-21T11:51:34;101423.03;;;9.67;74.17
51313;BME280;37397;53.226;10.400;2023-11-21T11:54:05;101413.38;;;9.65;74.28
51313;BME280;37397;53.226;10.400;2023-11-21T11:56:34;101427.03;;;9.70;74.24
51313;BME280;37397;53.226;10.400;2023-11-21T11:59:03;101431.00;;;9.73;74.16
51313;BME280;37397;53.226;10.400;2023-11-21T12:01:33;101429.88;;;9.70;74.12
51313;BME280;37397;53.226;10.400;2023-11-21T12:07:01;101433.88;;;9.73;73.95
51313;BME280;37397;53.226;10.400;2023-11-21T12:09:31;101435.91;;;9.72;73.94
51313;BME280;37397;53.226;10.400;2023-11-21T12:11:58;101433.97;;;9.69;73.57
51313;BME280;37397;53.226;10.400;2023-11-21T12:14:25;101433.19;;;9.68;73.60
51313;BME280;37397;53.226;10.400;2023-11-21T12:16:52;101444.91;;;9.71;73.72
51313;BME280;37397;53.226;10.400;2023-11-21T12:19:19;101446.97;;;9.70;73.51
51313;BME280;37397;53.226;10.400;2023-11-21T12:21:47;101448.22;;;9.69;73.75
51313;BME280;37397;53.226;10.400;2023-11-21T12:24:15;101455.53;;;9.70;73.60
51313;BME280;37397;53.226;10.400;2023-11-21T12:26:43;101455.53;;;9.70;73.54
51313;BME280;37397;53.226;10.400;2023-11-21T12:29:10;101456.44;;;9.67;73.73
51313;BME280;37397;53.226;10.400;2023-11-21T12:31:37;101464.53;;;9.68;73.58
51313;BME280;37397;53.226;10.400;2023-11-21T12:34:04;101462.94;;;9.67;73.49
51313;BME280;37397;53.226;10.400;2023-11-21T12:36:33;101465.00;;;9.67;73.56
51313;BME280;37397;53.226;10.400;2023-11-21T12:39:01;101474.31;;;9.67;73.48
51313;BME280;37397;53.226;10.400;2023-11-21T12:41:29;101473.53;;;9.67;73.34
51313;BME280;37397;53.226;10.400;2023-11-21T12:43:57;101467.50;;;9.65;73.37
51313;BME280;37397;53.226;10.400;2023-11-21T12:46:23;101479.25;;;9.67;73.25
51313;BME280;37397;53.226;10.400;2023-11-21T12:48:53;101479.69;;;9.65;73.12
51313;BME280;37397;53.226;10.400;2023-11-21T12:51:21;101483.34;;;9.66;73.22
51313;BME280;37397;53.226;10.400;2023-11-21T12:53:48;101481.44;;;9.63;73.14
51313;BME280;37397;53.226;10.400;2023-11-21T12:56:15;101487.47;;;9.65;73.10
51313;BME280;37397;53.226;10.400;2023-11-21T12:58:46;101481.44;;;9.63;73.18
51313;BME280;37397;53.226;10.400;2023-11-21T13:01:18;101487.13;;;9.63;73.29